createdAt,value
2022-12-09T00:00:13.120Z,2.03
2022-12-09T00:02:40.112Z,1.70
2022-12-09T00:05:06.997Z,1.90
2022-12-09T00:07:35.040Z,2.47
2022-12-09T00:10:01.973Z,1.97
2022-12-09T00:12:28.529Z,1.63
2022-12-09T00:14:55.116Z,1.63
2022-12-09T00:17:21.748Z,2.10
2022-12-09T00:19:48.342Z,1.50
2022-12-09T00:22:14.897Z,1.97
2022-12-09T00:24:41.491Z,1.90
2022-12-09T00:27:08.255Z,2.50
2022-12-09T00:29:34.870Z,2.20
2022-12-09T00:32:01.465Z,2.80
2022-12-09T00:34:28.074Z,2.40
2022-12-09T00:36:54.579Z,2.00
2022-12-09T00:39:21.410Z,2.10
2022-12-09T00:41:49.892Z,2.20
2022-12-09T00:44:16.399Z,2.87
2022-12-09T00:46:43.294Z,2.23
2022-12-09T00:49:10.650Z,2.20
2022-12-09T00:51:37.529Z,2.20
2022-12-09T00:54:04.184Z,1.80
2022-12-09T00:56:31.434Z,1.93
2022-12-09T00:58:58.699Z,2.37
2022-12-09T01:01:25.847Z,2.00
2022-12-09T01:03:52.711Z,2.30
2022-12-09T01:06:21.082Z,2.13
2022-12-09T01:08:47.735Z,2.57
2022-12-09T01:11:21.550Z,2.27
2022-12-09T01:13:48.870Z,3.10
2022-12-09T01:16:23.767Z,3.07
2022-12-09T01:18:51.369Z,3.70
2022-12-09T01:21:18.344Z,3.43
2022-12-09T01:23:45.299Z,3.23
2022-12-09T01:26:12.050Z,2.80
2022-12-09T01:28:39.608Z,2.90
2022-12-09T01:31:07.560Z,3.43
2022-12-09T01:33:34.193Z,3.20
2022-12-09T01:36:01.069Z,3.03
2022-12-09T01:38:27.750Z,3.23
2022-12-09T01:40:54.651Z,3.53
2022-12-09T01:43:21.518Z,3.00
2022-12-09T01:45:49.212Z,3.30
2022-12-09T01:48:18.626Z,3.17
2022-12-09T01:50:48.021Z,2.87
2022-12-09T01:53:15.356Z,2.97
2022-12-09T01:55:42.109Z,2.90
2022-12-09T01:58:09.286Z,2.63
2022-12-09T02:00:36.482Z,2.90
2022-12-09T02:03:05.816Z,3.37
2022-12-09T02:05:34.329Z,2.60
2022-12-09T02:08:01.374Z,2.87
2022-12-09T02:10:28.683Z,2.50
2022-12-09T02:13:35.739Z,3.27
2022-12-09T02:16:04.096Z,2.70
2022-12-09T02:18:30.886Z,2.80
2022-12-09T02:21:03.927Z,4.17
2022-12-09T02:23:38.230Z,2.90
2022-12-09T02:26:24.680Z,2.60
2022-12-09T02:28:57.560Z,2.93
2022-12-09T02:31:27.209Z,2.60
2022-12-09T02:34:12.890Z,3.20
2022-12-09T02:37:18.305Z,3.50
2022-12-09T02:40:11.195Z,3.03
2022-12-09T02:42:41.269Z,3.60
2022-12-09T02:45:10.060Z,3.20
2022-12-09T02:47:43.155Z,3.30
2022-12-09T02:50:14.951Z,3.00
2022-12-09T02:52:42.824Z,4.30
2022-12-09T02:55:10.902Z,3.97
2022-12-09T02:57:40.059Z,3.60
2022-12-09T03:00:09.352Z,3.93
2022-12-09T03:02:37.584Z,3.40
2022-12-09T03:05:23.191Z,3.72
2022-12-09T03:07:50.704Z,3.40
2022-12-09T03:10:20.192Z,4.13
2022-12-09T03:12:50.720Z,4.10
2022-12-09T03:15:19.797Z,3.47
2022-12-09T03:17:46.868Z,3.40
2022-12-09T03:20:21.025Z,3.90
2022-12-09T03:22:48.266Z,5.17
2022-12-09T03:25:18.310Z,3.87
2022-12-09T03:28:04.645Z,5.22
2022-12-09T03:30:33.357Z,4.50
2022-12-09T03:33:00.416Z,4.00
2022-12-09T03:35:30.450Z,4.77
2022-12-09T03:37:58.784Z,4.40
2022-12-09T03:40:27.614Z,4.10
2022-12-09T03:43:02.981Z,3.80
2022-12-09T03:45:30.217Z,3.93
2022-12-09T03:47:57.253Z,4.20
2022-12-09T03:50:25.922Z,4.60
2022-12-09T03:53:18.577Z,4.57
2022-12-09T03:55:51.582Z,4.10
2022-12-09T03:58:18.173Z,4.63
2022-12-09T04:00:44.891Z,4.10
2022-12-09T04:03:12.990Z,4.60
2022-12-09T04:05:39.682Z,4.20
2022-12-09T04:08:06.371Z,5.43
2022-12-09T04:10:33.283Z,4.37
2022-12-09T04:12:59.813Z,4.70
2022-12-09T04:15:26.384Z,4.77
2022-12-09T04:17:53.286Z,4.03
2022-12-09T04:20:20.090Z,3.43
2022-12-09T04:22:46.891Z,3.67
2022-12-09T04:25:13.788Z,3.80
2022-12-09T04:27:40.329Z,4.53
2022-12-09T04:30:07.434Z,4.10
2022-12-09T04:32:34.483Z,4.30
2022-12-09T04:35:01.572Z,5.60
2022-12-09T04:37:28.283Z,4.37
2022-12-09T04:39:55.358Z,4.60
2022-12-09T04:42:21.963Z,4.63
2022-12-09T04:44:48.461Z,3.90
2022-12-09T04:47:15.086Z,4.57
2022-12-09T04:49:41.609Z,5.10
2022-12-09T04:52:08.123Z,3.67
2022-12-09T04:54:34.697Z,3.60
2022-12-09T04:57:01.242Z,3.93
2022-12-09T04:59:30.200Z,3.97
2022-12-09T05:01:57.206Z,3.27
2022-12-09T05:04:24.104Z,4.30
2022-12-09T05:06:50.858Z,5.10
2022-12-09T05:09:17.596Z,5.20
2022-12-09T05:11:44.320Z,5.40
2022-12-09T05:14:10.921Z,6.47
2022-12-09T05:16:37.994Z,4.60
2022-12-09T05:19:04.809Z,5.10
2022-12-09T05:21:31.511Z,6.33
2022-12-09T05:23:58.383Z,4.93
2022-12-09T05:26:25.159Z,4.33
2022-12-09T05:28:52.617Z,4.87
2022-12-09T05:31:21.184Z,4.70
2022-12-09T05:33:48.765Z,3.53
2022-12-09T05:36:17.015Z,3.77
2022-12-09T05:38:43.919Z,4.13
2022-12-09T05:41:11.291Z,4.77
2022-12-09T05:43:39.507Z,4.60
2022-12-09T05:46:06.964Z,3.53
2022-12-09T05:48:34.367Z,6.60
2022-12-09T05:51:02.778Z,4.47
2022-12-09T05:53:30.377Z,4.67
2022-12-09T05:55:57.435Z,4.70
2022-12-09T05:58:24.612Z,4.17
2022-12-09T06:00:51.515Z,6.10
2022-12-09T06:03:18.334Z,4.73
2022-12-09T06:05:45.914Z,4.93
2022-12-09T06:08:12.754Z,5.53
2022-12-09T06:10:40.410Z,4.57
2022-12-09T06:13:07.368Z,5.00
2022-12-09T06:15:35.112Z,5.83
2022-12-09T06:18:02.150Z,12.97
2022-12-09T06:20:29.219Z,10.60
2022-12-09T06:22:55.898Z,6.93
2022-12-09T06:25:22.656Z,6.30
2022-12-09T06:27:49.270Z,6.53
2022-12-09T06:30:16.176Z,6.82
2022-12-09T06:32:43.143Z,6.40
2022-12-09T06:35:10.188Z,6.90
2022-12-09T06:37:37.406Z,7.30
2022-12-09T06:40:04.589Z,8.37
2022-12-09T06:42:31.307Z,8.50
2022-12-09T06:44:58.154Z,9.10
2022-12-09T06:47:24.885Z,10.30
2022-12-09T06:49:51.766Z,11.50
2022-12-09T06:52:18.509Z,9.83
2022-12-09T06:54:45.072Z,15.07
2022-12-09T06:57:11.574Z,12.77
2022-12-09T06:59:38.250Z,13.90
2022-12-09T07:02:04.864Z,11.33
2022-12-09T07:04:32.320Z,10.37
2022-12-09T07:06:59.187Z,13.57
2022-12-09T07:09:26.154Z,12.20
2022-12-09T07:11:52.910Z,12.63
2022-12-09T07:14:20.102Z,13.83
2022-12-09T07:16:47.112Z,12.97
2022-12-09T07:19:19.111Z,13.30
2022-12-09T07:21:46.203Z,13.37
2022-12-09T07:24:13.309Z,12.30
2022-12-09T07:26:40.167Z,11.57
2022-12-09T07:29:07.272Z,12.10
2022-12-09T07:31:34.580Z,11.63
2022-12-09T07:34:01.957Z,11.40
2022-12-09T07:36:29.678Z,12.33
2022-12-09T07:39:01.638Z,11.13
2022-12-09T07:41:28.363Z,12.13
2022-12-09T07:43:55.186Z,10.60
2022-12-09T07:46:23.354Z,10.57
2022-12-09T07:48:50.335Z,12.73
2022-12-09T07:51:17.175Z,10.77
2022-12-09T07:53:44.588Z,9.53
2022-12-09T07:56:13.382Z,11.97
2022-12-09T07:58:40.369Z,17.33
2022-12-09T08:01:07.569Z,15.73
2022-12-09T08:03:35.027Z,15.80
2022-12-09T08:06:02.575Z,13.23
2022-12-09T08:08:30.101Z,13.37
2022-12-09T08:11:05.991Z,12.23
2022-12-09T08:13:32.900Z,11.70
2022-12-09T08:16:07.052Z,12.20
2022-12-09T08:18:34.417Z,11.80
2022-12-09T08:21:04.806Z,11.83
2022-12-09T08:23:32.213Z,12.17
2022-12-09T08:25:59.355Z,11.10
2022-12-09T08:28:26.878Z,12.27
2022-12-09T08:30:53.980Z,14.60
2022-12-09T08:33:20.832Z,13.33
2022-12-09T08:35:47.614Z,12.87
2022-12-09T08:38:14.900Z,15.43
2022-12-09T08:40:41.523Z,16.63
2022-12-09T08:43:09.009Z,14.10
2022-12-09T08:45:36.607Z,16.77
2022-12-09T08:48:04.010Z,16.27
2022-12-09T08:50:31.093Z,15.63
2022-12-09T08:52:58.175Z,16.37
2022-12-09T08:55:24.718Z,12.73
2022-12-09T08:57:51.361Z,14.43
2022-12-09T09:00:18.976Z,15.37
2022-12-09T09:02:45.899Z,14.60
2022-12-09T09:05:13.532Z,19.60
2022-12-09T09:07:40.790Z,15.10
2022-12-09T09:10:08.603Z,14.23
2022-12-09T09:12:42.087Z,14.00
2022-12-09T09:15:10.520Z,13.97
2022-12-09T09:17:37.733Z,15.73
2022-12-09T09:20:05.040Z,16.00
2022-12-09T09:22:31.948Z,13.93
2022-12-09T09:24:58.927Z,14.93
2022-12-09T09:27:25.629Z,20.40
2022-12-09T09:29:52.368Z,19.23
2022-12-09T09:32:19.532Z,19.93
2022-12-09T09:34:48.580Z,17.93
2022-12-09T09:37:15.977Z,19.07
2022-12-09T09:39:43.306Z,17.70
2022-12-09T09:42:16.527Z,17.53
2022-12-09T09:44:53.554Z,17.77
2022-12-09T09:47:41.820Z,20.53
2022-12-09T09:50:17.883Z,18.53
2022-12-09T09:52:44.817Z,22.10
2022-12-09T09:55:16.126Z,19.30
2022-12-09T09:57:45.821Z,17.63
2022-12-09T10:00:23.748Z,19.97
2022-12-09T10:02:58.236Z,17.67
2022-12-09T10:05:31.727Z,19.47
2022-12-09T10:08:04.935Z,19.63
2022-12-09T10:10:39.192Z,16.00
2022-12-09T10:13:17.940Z,16.43
2022-12-09T10:15:51.392Z,16.10
2022-12-09T10:18:32.039Z,15.50
2022-12-09T10:20:58.962Z,21.37
2022-12-09T10:23:26.134Z,17.83
2022-12-09T10:25:55.143Z,19.13
2022-12-09T10:28:24.697Z,23.70
2022-12-09T10:30:52.887Z,17.23
2022-12-09T10:33:25.856Z,16.50
2022-12-09T10:35:52.755Z,17.77
2022-12-09T10:38:20.230Z,18.23
2022-12-09T10:40:47.173Z,17.33
2022-12-09T10:43:40.265Z,15.60
2022-12-09T10:46:17.803Z,18.33
2022-12-09T10:48:47.866Z,16.13
2022-12-09T10:51:18.635Z,16.47
2022-12-09T10:53:48.718Z,17.67
2022-12-09T10:56:20.164Z,18.33
2022-12-09T10:58:46.759Z,14.47
2022-12-09T11:01:16.075Z,15.83
2022-12-09T11:03:50.750Z,14.97
2022-12-09T11:06:23.226Z,15.43
2022-12-09T11:08:52.432Z,20.50
2022-12-09T11:11:19.796Z,18.47
2022-12-09T11:13:46.782Z,13.87
2022-12-09T11:16:13.582Z,15.10
2022-12-09T11:18:45.654Z,14.73
2022-12-09T11:21:29.867Z,15.70
2022-12-09T11:24:02.970Z,12.13
2022-12-09T11:26:35.208Z,13.97
2022-12-09T11:29:20.296Z,10.60
2022-12-09T11:31:47.342Z,11.73
2022-12-09T11:34:26.241Z,11.83
2022-12-09T11:36:54.375Z,11.27
2022-12-09T11:39:32.900Z,11.83
2022-12-09T11:42:18.202Z,10.50
2022-12-09T11:44:48.454Z,12.87
2022-12-09T11:47:21.027Z,12.77
2022-12-09T11:49:52.733Z,12.93
2022-12-09T11:52:19.272Z,14.63
2022-12-09T11:55:05.597Z,12.57
2022-12-09T11:57:38.283Z,14.77
2022-12-09T12:00:13.480Z,12.93
2022-12-09T12:02:50.885Z,13.27
2022-12-09T12:05:21.647Z,17.63
2022-12-09T12:08:00.882Z,15.27
2022-12-09T12:10:35.084Z,14.83
2022-12-09T12:13:06.128Z,16.23
2022-12-09T12:15:32.624Z,18.03
2022-12-09T12:18:00.320Z,18.67
2022-12-09T12:20:45.417Z,20.93
2022-12-09T12:23:18.802Z,18.37
2022-12-09T12:25:50.652Z,18.27
2022-12-09T12:28:29.477Z,21.33
2022-12-09T12:31:14.480Z,19.67
2022-12-09T12:36:30.166Z,18.23
2022-12-09T12:39:22.909Z,22.40
2022-12-09T12:41:55.675Z,22.47
2022-12-09T12:44:40.967Z,22.30
2022-12-09T12:47:13.771Z,20.07
2022-12-09T12:49:43.161Z,20.50
2022-12-09T12:52:26.333Z,26.53
2022-12-09T12:55:17.389Z,23.33
2022-12-09T12:58:02.921Z,21.77
2022-12-09T13:00:35.768Z,23.00
2022-12-09T13:03:11.386Z,28.27
2022-12-09T13:05:40.761Z,27.83
2022-12-09T13:08:30.506Z,24.10
2022-12-09T13:10:59.317Z,21.97
2022-12-09T13:13:29.647Z,20.23
2022-12-09T13:16:01.757Z,22.53
2022-12-09T13:18:30.691Z,19.27
2022-12-09T13:21:01.492Z,20.50
2022-12-09T13:23:40.201Z,19.37
2022-12-09T13:26:12.838Z,20.93
2022-12-09T13:28:57.770Z,21.40
2022-12-09T13:31:29.185Z,20.73
2022-12-09T13:33:55.762Z,22.23
2022-12-09T13:36:41.613Z,23.47
2022-12-09T13:39:09.882Z,20.20
2022-12-09T13:41:57.615Z,20.60
2022-12-09T13:44:29.267Z,21.70
2022-12-09T13:47:12.413Z,22.97
2022-12-09T13:49:39.036Z,20.20
2022-12-09T13:52:05.635Z,22.73
2022-12-09T13:54:32.305Z,28.30
2022-12-09T13:57:04.530Z,22.00
2022-12-09T13:59:36.530Z,23.77
2022-12-09T14:02:09.150Z,24.27
2022-12-09T14:04:42.173Z,23.37
2022-12-09T14:07:14.759Z,29.60
2022-12-09T14:09:44.064Z,23.53
2022-12-09T14:12:14.758Z,25.67
2022-12-09T14:14:44.276Z,27.17
2022-12-09T14:17:19.722Z,27.43
2022-12-09T14:20:05.012Z,31.20
2022-12-09T14:22:33.063Z,28.03
2022-12-09T14:25:19.512Z,28.50
2022-12-09T14:28:04.755Z,29.27
2022-12-09T14:30:31.250Z,31.20
2022-12-09T14:32:57.875Z,27.63
2022-12-09T14:35:38.650Z,32.20
2022-12-09T14:38:23.170Z,30.40
2022-12-09T14:40:53.616Z,38.70
2022-12-09T14:43:26.142Z,37.83
2022-12-09T14:45:57.776Z,31.63
2022-12-09T14:48:26.234Z,37.50
2022-12-09T14:51:06.613Z,41.23
2022-12-09T14:53:34.705Z,38.57
2022-12-09T14:56:01.466Z,39.00
2022-12-09T14:58:28.030Z,36.20
2022-12-09T15:01:02.346Z,38.97
2022-12-09T15:03:36.945Z,33.17
2022-12-09T15:06:12.380Z,37.43
2022-12-09T15:08:41.718Z,36.73
2022-12-09T15:11:10.132Z,36.90
2022-12-09T15:13:37.789Z,35.90
2022-12-09T15:16:08.910Z,32.53
2022-12-09T15:18:37.326Z,33.87
2022-12-09T15:21:03.884Z,34.13
2022-12-09T15:23:33.251Z,29.20
2022-12-09T15:26:01.941Z,37.60
2022-12-09T15:28:29.986Z,36.37
2022-12-09T15:31:00.998Z,32.37
2022-12-09T15:33:29.303Z,32.53
2022-12-09T15:35:57.759Z,30.57
2022-12-09T15:38:25.690Z,32.10
2022-12-09T15:41:25.871Z,32.77
2022-12-09T15:43:55.365Z,31.70
2022-12-09T15:46:22.498Z,32.77
2022-12-09T15:48:52.124Z,28.77
2022-12-09T15:51:20.513Z,27.87
2022-12-09T15:53:56.551Z,25.87
2022-12-09T15:56:32.421Z,28.50
2022-12-09T15:59:01.942Z,26.83
2022-12-09T16:01:30.298Z,26.77
2022-12-09T16:03:58.108Z,24.43
2022-12-09T16:06:27.127Z,26.40
2022-12-09T16:08:53.714Z,26.60
2022-12-09T16:11:37.030Z,27.83
2022-12-09T16:14:03.568Z,27.43
2022-12-09T16:16:34.185Z,24.47
2022-12-09T16:19:00.886Z,29.60
2022-12-09T16:21:29.031Z,27.90
2022-12-09T16:23:56.600Z,23.53
2022-12-09T16:26:23.123Z,26.67
2022-12-09T16:28:54.142Z,23.57
2022-12-09T16:31:20.846Z,22.47
2022-12-09T16:33:48.970Z,25.70
2022-12-09T16:36:18.164Z,27.90
2022-12-09T16:38:57.063Z,27.63
2022-12-09T16:41:43.515Z,32.70
2022-12-09T16:44:17.540Z,27.07
2022-12-09T16:46:44.096Z,30.13
2022-12-09T16:49:10.685Z,26.00
2022-12-09T16:51:38.494Z,25.67
2022-12-09T16:54:06.401Z,39.10
2022-12-09T16:56:33.184Z,34.43
2022-12-09T16:58:59.828Z,30.03
2022-12-09T17:01:29.549Z,29.43
2022-12-09T17:03:56.051Z,34.03
2022-12-09T17:06:22.623Z,35.37
2022-12-09T17:08:49.249Z,32.70
2022-12-09T17:11:17.235Z,44.37
2022-12-09T17:13:43.785Z,47.07
2022-12-09T17:16:10.440Z,44.13
2022-12-09T17:18:37.015Z,45.10
2022-12-09T17:21:05.444Z,46.23
2022-12-09T17:23:37.707Z,46.97
2022-12-09T17:26:06.964Z,49.53
2022-12-09T17:28:35.345Z,49.67
2022-12-09T17:31:02.070Z,47.83
2022-12-09T17:33:29.624Z,50.20
2022-12-09T17:35:56.319Z,49.73
2022-12-09T17:38:23.106Z,47.07
2022-12-09T17:40:49.804Z,78.73
2022-12-09T17:43:16.428Z,53.03
2022-12-09T17:45:43.082Z,55.03
2022-12-09T17:48:09.621Z,50.30
2022-12-09T17:50:39.923Z,48.97
2022-12-09T17:53:06.997Z,53.67
2022-12-09T17:55:33.517Z,57.60
2022-12-09T17:58:00.110Z,57.60
2022-12-09T18:00:26.606Z,54.40
2022-12-09T18:02:53.096Z,50.87
2022-12-09T18:05:20.149Z,57.30
2022-12-09T18:07:46.778Z,51.53
2022-12-09T18:10:13.335Z,54.73
2022-12-09T18:12:40.167Z,55.23
2022-12-09T18:15:06.945Z,54.07
2022-12-09T18:17:34.087Z,49.97
2022-12-09T18:20:00.848Z,53.60
2022-12-09T18:22:27.411Z,50.70
2022-12-09T18:24:54.816Z,47.47
2022-12-09T18:27:21.353Z,57.23
2022-12-09T18:29:47.911Z,49.63
2022-12-09T18:32:15.197Z,56.27
2022-12-09T18:34:42.014Z,50.53
2022-12-09T18:37:08.621Z,54.57
2022-12-09T18:39:35.199Z,55.60
2022-12-09T18:42:01.741Z,54.43
2022-12-09T18:44:28.554Z,45.13
2022-12-09T18:46:55.036Z,49.87
2022-12-09T18:49:23.570Z,48.93
2022-12-09T18:51:51.152Z,48.27
2022-12-09T18:54:19.439Z,47.27
2022-12-09T18:56:46.352Z,44.50
2022-12-09T18:59:12.853Z,48.93
2022-12-09T19:01:44.133Z,49.30
2022-12-09T19:04:31.104Z,44.37
2022-12-09T19:06:58.757Z,49.20
2022-12-09T19:09:35.334Z,50.67
2022-12-09T19:12:22.879Z,49.50
2022-12-09T19:14:49.687Z,43.13
2022-12-09T19:17:16.388Z,47.60
2022-12-09T19:19:45.542Z,45.97
2022-12-09T19:22:12.161Z,43.47
2022-12-09T19:24:42.939Z,43.47
2022-12-09T19:27:10.399Z,42.40
2022-12-09T19:29:37.313Z,45.97
2022-12-09T19:32:04.321Z,48.80
2022-12-09T19:34:32.311Z,41.73
2022-12-09T19:37:00.101Z,43.00
2022-12-09T19:39:30.185Z,47.27
2022-12-09T19:42:00.241Z,43.70
2022-12-09T19:47:14.407Z,55.20
2022-12-09T19:49:42.628Z,44.17
2022-12-09T19:52:09.475Z,47.87
2022-12-09T19:54:35.975Z,43.00
2022-12-09T19:57:02.825Z,43.97
2022-12-09T19:59:29.494Z,46.03
2022-12-09T20:01:56.405Z,44.10
2022-12-09T20:07:10.781Z,48.87
2022-12-09T20:09:37.482Z,45.43
2022-12-09T20:12:04.171Z,40.77
2022-12-09T20:14:30.712Z,42.70
2022-12-09T20:16:57.325Z,45.50
2022-12-09T20:19:24.695Z,45.63
2022-12-09T20:21:51.202Z,41.57
2022-12-09T20:24:17.824Z,41.80
2022-12-09T20:26:44.846Z,44.17
2022-12-09T20:29:11.935Z,39.07
2022-12-09T20:31:39.106Z,42.97
2022-12-09T20:34:11.323Z,40.63
2022-12-09T20:36:39.614Z,42.87
2022-12-09T20:39:11.240Z,42.90
2022-12-09T20:41:38.190Z,41.77
2022-12-09T20:44:04.806Z,41.77
2022-12-09T20:46:32.265Z,40.43
2022-12-09T20:48:59.266Z,45.87
2022-12-09T20:51:30.426Z,42.80
2022-12-09T20:53:57.417Z,52.30
2022-12-09T20:56:24.842Z,48.03
2022-12-09T20:58:53.666Z,44.20
2022-12-09T21:01:21.668Z,43.67
2022-12-09T21:03:48.972Z,41.63
2022-12-09T21:06:16.352Z,47.63
2022-12-09T21:08:43.346Z,53.23
2022-12-09T21:11:11.356Z,43.07
2022-12-09T21:13:41.886Z,36.60
2022-12-09T21:16:13.307Z,40.30
2022-12-09T21:18:39.871Z,39.37
2022-12-09T21:21:06.360Z,41.60
2022-12-09T21:23:35.014Z,41.20
2022-12-09T21:26:11.925Z,38.33
2022-12-09T21:28:38.804Z,38.67
2022-12-09T21:31:09.696Z,38.77
2022-12-09T21:33:36.474Z,40.30
2022-12-09T21:36:10.351Z,40.23
2022-12-09T21:38:37.361Z,40.63
2022-12-09T21:41:07.901Z,44.40
2022-12-09T21:43:34.901Z,40.17
2022-12-09T21:46:11.946Z,34.93
2022-12-09T21:48:38.939Z,41.33
2022-12-09T21:51:05.792Z,42.37
2022-12-09T21:53:32.705Z,39.83
2022-12-09T21:56:03.103Z,43.63
2022-12-09T21:58:31.028Z,39.23
2022-12-09T22:00:58.247Z,41.50
2022-12-09T22:03:25.265Z,41.10
2022-12-09T22:05:58.032Z,37.30
2022-12-09T22:08:25.624Z,40.57
2022-12-09T22:10:52.881Z,41.87
2022-12-09T22:13:19.806Z,39.27
2022-12-09T22:15:46.357Z,35.90
2022-12-09T22:18:12.891Z,37.40
2022-12-09T22:21:23.481Z,40.63
2022-12-09T22:23:25.998Z,39.67
2022-12-09T22:25:52.476Z,35.50
2022-12-09T22:28:19.258Z,40.40
2022-12-09T22:30:45.789Z,40.07
2022-12-09T22:33:12.284Z,39.73
2022-12-09T22:35:38.831Z,36.77
2022-12-09T22:38:11.761Z,36.67
2022-12-09T22:40:40.842Z,40.57
2022-12-09T22:43:07.904Z,39.27
2022-12-09T22:45:37.546Z,37.10
2022-12-09T22:48:04.293Z,34.13
2022-12-09T22:50:30.871Z,37.57
2022-12-09T22:52:57.434Z,39.37
2022-12-09T22:55:23.935Z,37.87
2022-12-09T22:57:51.859Z,37.87
2022-12-09T23:00:18.746Z,38.80
2022-12-09T23:02:45.436Z,40.77
2022-12-09T23:05:12.036Z,37.67
2022-12-09T23:07:38.581Z,40.67
2022-12-09T23:10:05.663Z,41.60
2022-12-09T23:12:32.342Z,43.72
2022-12-09T23:14:58.847Z,36.80
2022-12-09T23:17:25.385Z,39.47
2022-12-09T23:19:52.061Z,40.10
2022-12-09T23:22:19.234Z,41.20
2022-12-09T23:24:47.400Z,40.87
2022-12-09T23:27:13.897Z,45.10
2022-12-09T23:29:40.564Z,40.27
2022-12-09T23:32:07.102Z,41.30
2022-12-09T23:34:33.676Z,39.60
2022-12-09T23:37:00.181Z,42.27
2022-12-09T23:39:27.216Z,48.60
2022-12-09T23:41:54.459Z,45.17
2022-12-09T23:44:21.068Z,46.00
2022-12-09T23:46:48.030Z,46.47
2022-12-09T23:49:14.880Z,47.43
2022-12-09T23:51:43.880Z,47.30
2022-12-09T23:54:11.066Z,45.17
2022-12-09T23:56:40.422Z,42.97
2022-12-09T23:59:08.003Z,44.60
